National Weather Service United States Department of Commerce

Airport Observations and Forecasts (from NWS CLE)

Cleveland Hopkins International Airport

 

FAA details


281
FTUS41 KCLE 181120
TAFCLE
TAF
KCLE 181120Z 1812/1918 19007KT P6SM FEW250
FM181500 21010G16KT P6SM FEW250
FM190000 19008KT P6SM SKC
FM191600 22014G20KT P6SM FEW250=

24 hours of observations

7-day forecast

Hourly - Tabular forecast  Hourly - Graph forecast

Terminal Information Board

Toledo Express Airport

 

FAA details


567
FTUS41 KCLE 181120
TAFTOL
TAF
KTOL 181120Z 1812/1912 21006KT P6SM SKC
FM181600 22012G18KT P6SM SKC
FM190000 20006KT P6SM SKC=

24 hours of observations

7-day forecast

Hourly - Tabular forecast  Hourly - Graph forecast

Terminal Information Board

Findlay Airport

 

FAA details


284
FTUS41 KCLE 181120
TAFFDY
TAF
KFDY 181120Z 1812/1912 19008KT P6SM FEW250
FM181500 21012G18KT P6SM SKC
FM190000 19006KT P6SM SKC=

24 hours of observations

7-day forecast

Hourly - Tabular forecast   Hourly - Graph forecast

Terminal Information Board

Mansfield Lahm Airport

 

FAA details


834
FTUS41 KCLE 181120
TAFMFD
TAF
KMFD 181120Z 1812/1912 19005KT P6SM FEW250
FM181600 20010KT P6SM FEW250
FM190000 18007KT P6SM SKC=

24 hours of observations

7-day forecast

Hourly - Tabular forecast   Hourly - Graph forecast

Terminal Information Board

Akron-Canton Airport

 

FAA details


582
FTUS41 KCLE 181120
TAFCAK
TAF
KCAK 181120Z 1812/1912 19005KT P6SM FEW250
FM181700 20009KT P6SM FEW250
FM190000 18006KT P6SM SKC=

24 hours of observations

7-day forecast

Hourly - Tabular forecast   Hourly - Graph forecast

Terminal Information Board

Youngstown-Warren Regional Airport

 

FAA details


744
FTUS41 KCLE 181120
TAFYNG
TAF
KYNG 181120Z 1812/1912 21008KT P6SM FEW250=

24 hours of observations

7-day forecast

Hourly - Tabular forecast   Hourly - Graph forecast

Terminal Information Board

Erie International Airport

 

FAA details


310
FTUS41 KCLE 181120
TAFERI
TAF
KERI 181120Z 1812/1912 20010G16KT P6SM FEW250=

24 hours of observations

7-day forecast

Hourly - Tabular Forecast  Hourly - Graph forecast

Terminal Information Board

The National Weather Service is Cleveland is responsible for the Terminal Areodome Forecasts for seven area airports in northern Ohio and northwest Pennsylvania.  Routine issuance times are by 00Z, 06Z, 12Z, and 18Z with amendments, as needed.

Latest Surface Analysis

Additional Current Conditions

Satellite

Radar
 
 

 

Center Weather Service Unit, Oberlin/ZOB

CWA/MIS    

 

The National Weather Service Center Weather Service Unit in Oberlin is responsible for the airspace above northern Ohio and northwest Pennsylvania and ajoining areas.

 

Aviaiton Weather Center National, AWC

AIRMETS & SIGMETS

 

 

Climatology